Time;durP1;ratioP1;P1;durP2;ratioP2;P2;SDS_P1;SDS_P2;PMS_P1;PMS_P2;Temp;Humidity;BMP_temperature;BMP_pressure;BME280_temperature;BME280_humidity;BME280_pressure;Samples;Min_cycle;Max_cycle;Signal;HPM_P1;HPM_P2
2022/05/13 00:02:20;;;;;;;9.07;4.78;;;;;;;;;;5062894;28;20107;-84
2022/05/13 00:04:46;;;;;;;6.22;4.40;;;;;;;;;;5035588;28;20029;-84
2022/05/13 00:07:11;;;;;;;9.00;4.30;;;;;;;;;;5033104;28;20125;-83
2022/05/13 00:12:20;;;;;;;5.65;3.78;;;;;;;;;;5072323;28;20525;-84
2022/05/13 00:14:46;;;;;;;10.55;4.30;;;;;;;;;;5061899;28;20029;-84
2022/05/13 00:17:11;;;;;;;8.35;3.95;;;;;;;;;;5048470;28;20021;-84
2022/05/13 00:19:38;;;;;;;5.43;3.80;;;;;;;;;;5048591;28;20021;-84
2022/05/13 00:22:03;;;;;;;5.63;4.10;;;;;;;;;;5068145;28;20029;-85
2022/05/13 00:24:29;;;;;;;6.22;4.30;;;;;;;;;;5066991;28;20039;-84
2022/05/13 00:26:54;;;;;;;7.82;3.90;;;;;;;;;;5070839;28;20050;-84
2022/05/13 00:29:20;;;;;;;4.97;4.00;;;;;;;;;;5073872;28;20115;-86
2022/05/13 00:31:45;;;;;;;5.70;3.40;;;;;;;;;;5066838;28;20033;-86
2022/05/13 00:34:10;;;;;;;9.02;3.95;;;;;;;;;;5059749;28;20079;-86
2022/05/13 00:36:36;;;;;;;7.53;4.15;;;;;;;;;;5066763;28;20024;-86
2022/05/13 00:39:04;;;;;;;5.28;3.60;;;;;;;;;;5066214;28;20536;-86
2022/05/13 00:41:30;;;;;;;7.47;3.90;;;;;;;;;;5049741;28;20048;-85
2022/05/13 00:43:56;;;;;;;5.60;3.65;;;;;;;;;;5066455;28;20105;-86
2022/05/13 00:46:22;;;;;;;6.35;3.55;;;;;;;;;;5050076;28;20055;-86
2022/05/13 00:48:48;;;;;;;6.70;3.72;;;;;;;;;;5066512;28;20017;-86
2022/05/13 00:51:22;;;;;;;6.78;4.50;;;;;;;;;;5071289;28;20028;-86
2022/05/13 00:53:47;;;;;;;5.30;3.25;;;;;;;;;;5060380;28;20029;-85
2022/05/13 00:56:13;;;;;;;6.97;3.40;;;;;;;;;;5074364;28;20036;-84
2022/05/13 00:58:42;;;;;;;4.03;3.33;;;;;;;;;;5074119;28;20512;-84
2022/05/13 01:01:07;;;;;;;4.68;3.60;;;;;;;;;;5066941;28;20027;-84
2022/05/13 01:03:35;;;;;;;4.80;3.75;;;;;;;;;;5066686;28;20044;-83
2022/05/13 01:06:04;;;;;;;8.50;3.50;;;;;;;;;;5050837;28;20116;-83
2022/05/13 01:08:32;;;;;;;6.82;3.97;;;;;;;;;;5047497;28;20032;-84
2022/05/13 01:11:00;;;;;;;8.45;5.43;;;;;;;;;;5053133;28;20021;-85
2022/05/13 01:13:28;;;;;;;8.93;4.25;;;;;;;;;;5061290;28;20330;-85
2022/05/13 01:15:54;;;;;;;8.02;4.25;;;;;;;;;;5080540;28;20025;-88
2022/05/13 01:18:34;;;;;;;10.18;4.15;;;;;;;;;;5091795;28;20051;-87
2022/05/13 01:21:02;;;;;;;9.82;4.40;;;;;;;;;;5092366;28;20072;-87
2022/05/13 01:23:36;;;;;;;5.60;4.20;;;;;;;;;;5076500;28;20095;-87
2022/05/13 01:26:08;;;;;;;8.50;5.15;;;;;;;;;;5047051;28;20058;-87
2022/05/13 01:28:38;;;;;;;6.60;4.35;;;;;;;;;;5050543;28;20121;-85
2022/05/13 01:31:07;;;;;;;7.95;4.30;;;;;;;;;;5070515;28;20037;-85
2022/05/13 01:33:34;;;;;;;6.68;4.53;;;;;;;;;;5042382;28;20047;-86
2022/05/13 01:36:02;;;;;;;6.05;4.30;;;;;;;;;;5069966;28;20027;-86
2022/05/13 01:38:31;;;;;;;7.53;4.82;;;;;;;;;;5073649;28;20244;-84
2022/05/13 01:40:57;;;;;;;6.72;4.47;;;;;;;;;;5048358;28;20111;-87
2022/05/13 01:43:24;;;;;;;6.95;5.13;;;;;;;;;;5062509;28;20025;-87
2022/05/13 01:45:50;;;;;;;6.53;4.80;;;;;;;;;;5045094;28;20013;-87
2022/05/13 01:48:16;;;;;;;6.57;4.80;;;;;;;;;;5046577;28;20397;-87
2022/05/13 01:50:42;;;;;;;8.85;5.03;;;;;;;;;;5048478;28;20048;-86
2022/05/13 01:53:08;;;;;;;8.50;5.53;;;;;;;;;;5058770;28;20087;-85
2022/05/13 01:55:35;;;;;;;9.35;5.60;;;;;;;;;;5050971;28;20032;-86
2022/05/13 01:58:00;;;;;;;11.23;5.20;;;;;;;;;;5035848;28;20075;-86
2022/05/13 02:00:27;;;;;;;9.40;5.43;;;;;;;;;;5031114;28;20477;-85
2022/05/13 02:05:36;;;;;;;7.50;4.55;;;;;;;;;;5066477;28;20076;-85
2022/05/13 02:08:02;;;;;;;6.07;4.60;;;;;;;;;;5041039;28;20021;-85
2022/05/13 02:10:29;;;;;;;6.55;4.43;;;;;;;;;;5069337;28;20100;-85
2022/05/13 02:12:55;;;;;;;8.40;5.55;;;;;;;;;;5041485;28;20363;-85
2022/05/13 02:15:20;;;;;;;7.43;4.88;;;;;;;;;;5035088;28;20029;-85
2022/05/13 02:17:46;;;;;;;5.97;4.85;;;;;;;;;;5044438;28;20408;-86
2022/05/13 02:20:12;;;;;;;6.50;4.40;;;;;;;;;;5073079;28;20028;-87
2022/05/13 02:22:37;;;;;;;8.82;4.72;;;;;;;;;;5060649;28;20021;-86
2022/05/13 02:25:04;;;;;;;8.57;4.25;;;;;;;;;;5041037;28;20026;-85
2022/05/13 02:27:29;;;;;;;6.95;4.32;;;;;;;;;;5048128;28;20050;-87
2022/05/13 02:29:55;;;;;;;10.48;4.45;;;;;;;;;;5038684;28;20029;-85
2022/05/13 02:32:20;;;;;;;10.43;5.07;;;;;;;;;;5064680;28;20020;-84
2022/05/13 02:34:46;;;;;;;7.35;4.25;;;;;;;;;;5029282;28;20115;-85
2022/05/13 02:37:11;;;;;;;10.23;4.60;;;;;;;;;;5057747;28;20064;-86
2022/05/13 02:39:37;;;;;;;9.18;5.10;;;;;;;;;;5064120;28;20020;-86
2022/05/13 02:42:02;;;;;;;8.13;4.78;;;;;;;;;;5045103;28;20023;-86
2022/05/13 02:44:28;;;;;;;6.43;4.35;;;;;;;;;;5028945;28;20029;-85
2022/05/13 02:46:53;;;;;;;11.85;4.65;;;;;;;;;;5072389;28;20114;-86
2022/05/13 02:49:19;;;;;;;10.13;4.18;;;;;;;;;;5045136;28;20020;-86
2022/05/13 02:51:48;;;;;;;6.88;3.92;;;;;;;;;;5043757;28;20025;-86
2022/05/13 02:54:15;;;;;;;11.32;4.18;;;;;;;;;;5040909;28;20032;-87
2022/05/13 02:56:40;;;;;;;12.25;4.68;;;;;;;;;;5060432;28;20027;-88
2022/05/13 02:59:06;;;;;;;10.95;4.85;;;;;;;;;;5067263;28;20036;-87
2022/05/13 03:01:35;;;;;;;7.32;4.50;;;;;;;;;;5061659;28;20055;-88
2022/05/13 03:04:01;;;;;;;15.05;4.40;;;;;;;;;;5071628;28;20017;-87
2022/05/13 03:06:26;;;;;;;9.45;5.22;;;;;;;;;;5067991;28;20039;-86
2022/05/13 03:08:53;;;;;;;8.25;4.50;;;;;;;;;;5076867;28;20470;-87
2022/05/13 03:11:20;;;;;;;8.48;5.43;;;;;;;;;;5048567;28;20605;-86
2022/05/13 03:13:47;;;;;;;16.02;4.90;;;;;;;;;;5037639;28;20383;-85
2022/05/13 03:16:17;;;;;;;10.18;4.80;;;;;;;;;;5064637;28;20056;-85
2022/05/13 03:18:43;;;;;;;9.18;4.60;;;;;;;;;;5062345;28;20061;-85
2022/05/13 03:21:09;;;;;;;12.27;5.05;;;;;;;;;;5060842;28;20464;-85
2022/05/13 03:23:34;;;;;;;7.63;4.47;;;;;;;;;;5053831;28;20035;-85
2022/05/13 03:26:00;;;;;;;7.45;4.70;;;;;;;;;;5053952;28;20108;-85
2022/05/13 03:28:26;;;;;;;6.75;4.53;;;;;;;;;;5067833;28;20020;-86
2022/05/13 03:30:52;;;;;;;12.40;5.18;;;;;;;;;;5067116;28;20025;-85
2022/05/13 03:33:19;;;;;;;9.48;4.32;;;;;;;;;;5058564;28;20025;-85
2022/05/13 03:35:44;;;;;;;8.77;4.30;;;;;;;;;;5037345;28;20402;-85
2022/05/13 03:38:09;;;;;;;11.40;5.10;;;;;;;;;;5034243;28;20025;-86
2022/05/13 03:40:36;;;;;;;9.50;4.90;;;;;;;;;;5064533;28;20094;-86
2022/05/13 03:43:03;;;;;;;10.63;5.35;;;;;;;;;;5039892;28;20630;-86
2022/05/13 03:45:30;;;;;;;12.52;5.13;;;;;;;;;;5058320;28;20056;-87
2022/05/13 03:47:56;;;;;;;6.10;4.10;;;;;;;;;;5062811;28;20036;-87
2022/05/13 03:50:22;;;;;;;10.02;4.70;;;;;;;;;;5065287;28;20013;-87
2022/05/13 03:52:47;;;;;;;10.52;4.85;;;;;;;;;;5064019;28;20036;-86
2022/05/13 03:55:13;;;;;;;6.90;4.85;;;;;;;;;;5074318;28;20009;-86
2022/05/13 03:57:39;;;;;;;7.35;4.95;;;;;;;;;;5070001;28;20009;-87
2022/05/13 04:00:06;;;;;;;8.18;4.68;;;;;;;;;;5061018;28;20032;-87
2022/05/13 04:02:32;;;;;;;5.88;4.32;;;;;;;;;;5067283;28;20016;-87
2022/05/13 04:10:25;;;;;;;8.00;5.05;;;;;;;;;;5069709;28;20528;-86
2022/05/13 04:18:19;;;;;;;6.90;4.55;;;;;;;;;;5070964;28;20044;-86
2022/05/13 04:20:47;;;;;;;10.10;4.65;;;;;;;;;;5049668;28;20064;-86
2022/05/13 04:23:12;;;;;;;10.02;4.78;;;;;;;;;;5034793;28;20021;-86
2022/05/13 04:25:38;;;;;;;7.63;4.70;;;;;;;;;;5060413;28;20023;-86
2022/05/13 04:28:03;;;;;;;10.77;4.95;;;;;;;;;;5045024;28;20078;-86
2022/05/13 04:30:29;;;;;;;7.78;4.63;;;;;;;;;;5036759;28;20025;-87
2022/05/13 04:32:54;;;;;;;7.25;4.72;;;;;;;;;;5036608;28;20025;-86
2022/05/13 04:35:19;;;;;;;12.95;5.78;;;;;;;;;;5041943;28;20021;-86
2022/05/13 04:37:45;;;;;;;8.60;5.05;;;;;;;;;;5076268;28;20084;-87
2022/05/13 04:40:11;;;;;;;10.80;4.47;;;;;;;;;;5051436;28;20470;-86
2022/05/13 04:42:51;;;;;;;8.40;4.68;;;;;;;;;;5040863;28;20494;-86
2022/05/13 04:45:25;;;;;;;11.55;4.90;;;;;;;;;;5036469;28;20036;-86
2022/05/13 04:50:36;;;;;;;8.98;4.53;;;;;;;;;;5075893;28;20081;-87
2022/05/13 04:53:03;;;;;;;8.63;4.38;;;;;;;;;;5037901;28;20028;-88
2022/05/13 04:55:29;;;;;;;9.93;4.70;;;;;;;;;;5040493;28;20021;-86
2022/05/13 04:57:54;;;;;;;8.57;4.57;;;;;;;;;;5059979;28;20092;-87
2022/05/13 05:00:20;;;;;;;7.75;4.40;;;;;;;;;;5058060;28;20017;-86
2022/05/13 05:02:45;;;;;;;6.65;4.22;;;;;;;;;;5039706;28;20100;-87
2022/05/13 05:05:11;;;;;;;8.70;4.60;;;;;;;;;;5036603;28;20031;-87
2022/05/13 05:07:36;;;;;;;7.97;4.25;;;;;;;;;;5070665;28;20023;-87
2022/05/13 05:10:02;;;;;;;6.40;4.85;;;;;;;;;;5079067;28;20048;-86
2022/05/13 05:12:27;;;;;;;9.07;4.53;;;;;;;;;;5068493;28;20056;-87
2022/05/13 05:14:53;;;;;;;6.63;4.47;;;;;;;;;;5054223;28;20040;-86
2022/05/13 05:17:19;;;;;;;6.82;4.20;;;;;;;;;;5041683;28;20037;-86
2022/05/13 05:19:44;;;;;;;13.90;4.47;;;;;;;;;;5069963;28;20024;-86
2022/05/13 05:22:09;;;;;;;7.88;3.75;;;;;;;;;;5049088;28;20021;-86
2022/05/13 05:24:34;;;;;;;8.90;3.72;;;;;;;;;;5032970;28;20544;-86
2022/05/13 05:27:00;;;;;;;10.10;4.32;;;;;;;;;;5036826;28;20021;-86
2022/05/13 05:29:25;;;;;;;11.57;3.75;;;;;;;;;;5042188;28;20028;-87
2022/05/13 05:31:51;;;;;;;8.10;3.67;;;;;;;;;;5046942;28;20564;-86
2022/05/13 05:34:19;;;;;;;6.88;3.75;;;;;;;;;;5038434;28;20139;-86
2022/05/13 05:36:45;;;;;;;7.78;4.03;;;;;;;;;;5070033;28;20032;-87
2022/05/13 05:39:10;;;;;;;12.23;4.40;;;;;;;;;;5023937;28;20129;-87
2022/05/13 05:41:36;;;;;;;7.13;4.15;;;;;;;;;;5029563;28;20032;-86
2022/05/13 05:44:03;;;;;;;7.18;3.42;;;;;;;;;;5035525;28;20505;-86
2022/05/13 05:46:29;;;;;;;9.35;3.92;;;;;;;;;;5048840;28;20045;-86
2022/05/13 05:48:54;;;;;;;9.13;4.82;;;;;;;;;;5076714;28;20056;-86
2022/05/13 05:51:20;;;;;;;9.13;3.33;;;;;;;;;;5053909;28;20014;-85
2022/05/13 05:59:16;;;;;;;9.38;3.33;;;;;;;;;;5074002;28;20062;-85
2022/05/13 06:01:42;;;;;;;7.85;3.45;;;;;;;;;;5055187;28;20017;-87
2022/05/13 06:04:08;;;;;;;9.05;3.58;;;;;;;;;;5044003;28;20047;-88
2022/05/13 06:06:33;;;;;;;15.88;3.78;;;;;;;;;;5073631;28;20025;-85
2022/05/13 06:08:59;;;;;;;8.77;3.97;;;;;;;;;;5077094;28;20016;-86
2022/05/13 06:11:25;;;;;;;7.18;4.03;;;;;;;;;;5065821;28;20079;-87
2022/05/13 06:13:53;;;;;;;7.15;3.70;;;;;;;;;;5061045;28;20029;-87
2022/05/13 06:16:19;;;;;;;5.80;3.22;;;;;;;;;;5060983;28;20015;-86
2022/05/13 06:18:45;;;;;;;7.03;3.85;;;;;;;;;;5065228;28;20036;-86
2022/05/13 06:21:10;;;;;;;9.27;3.28;;;;;;;;;;5048703;28;20498;-86
2022/05/13 06:23:36;;;;;;;6.63;3.28;;;;;;;;;;5046640;28;20073;-86
2022/05/13 06:26:02;;;;;;;10.43;4.18;;;;;;;;;;5037374;28;20099;-89
2022/05/13 06:28:28;;;;;;;7.93;3.70;;;;;;;;;;5068478;28;20110;-86
2022/05/13 06:30:53;;;;;;;8.32;3.80;;;;;;;;;;5068391;28;20020;-86
2022/05/13 06:33:18;;;;;;;7.53;3.10;;;;;;;;;;5059334;28;20483;-87
2022/05/13 06:35:44;;;;;;;6.38;3.80;;;;;;;;;;5043455;28;20243;-85
2022/05/13 06:38:20;;;;;;;9.07;3.42;;;;;;;;;;5057472;28;20025;-87
2022/05/13 06:40:49;;;;;;;7.07;3.30;;;;;;;;;;5054985;28;20104;-88
2022/05/13 06:43:15;;;;;;;9.27;2.97;;;;;;;;;;5059313;28;20056;-86
2022/05/13 06:45:41;;;;;;;5.63;2.75;;;;;;;;;;5062076;28;20016;-87
2022/05/13 06:48:07;;;;;;;9.07;3.20;;;;;;;;;;5039263;28;20025;-87
2022/05/13 06:50:33;;;;;;;6.32;2.80;;;;;;;;;;5041885;28;20387;-87
2022/05/13 06:52:59;;;;;;;4.88;2.80;;;;;;;;;;5049174;28;20040;-87
2022/05/13 06:55:24;;;;;;;6.05;2.95;;;;;;;;;;5032655;28;20386;-86
2022/05/13 06:57:50;;;;;;;7.03;2.90;;;;;;;;;;5045474;28;20023;-87
2022/05/13 07:00:16;;;;;;;6.70;2.58;;;;;;;;;;5071177;28;20016;-87
2022/05/13 07:02:41;;;;;;;10.65;2.92;;;;;;;;;;5042080;28;20398;-85
2022/05/13 07:05:09;;;;;;;9.00;3.17;;;;;;;;;;5049638;28;20024;-86
2022/05/13 07:07:35;;;;;;;4.88;2.83;;;;;;;;;;5040989;28;20043;-86
2022/05/13 07:10:01;;;;;;;5.03;2.67;;;;;;;;;;5054705;28;20016;-88
2022/05/13 07:12:26;;;;;;;10.02;2.58;;;;;;;;;;5061807;28;20016;-85
2022/05/13 07:14:53;;;;;;;6.00;2.70;;;;;;;;;;5022074;28;20072;-87
2022/05/13 07:17:19;;;;;;;6.60;2.85;;;;;;;;;;5058358;28;20488;-87
2022/05/13 07:19:44;;;;;;;8.55;3.10;;;;;;;;;;5072142;28;20085;-86
2022/05/13 07:22:10;;;;;;;4.97;2.40;;;;;;;;;;5057444;28;20024;-86
2022/05/13 07:24:35;;;;;;;8.10;1.98;;;;;;;;;;5055025;28;20029;-88
2022/05/13 07:27:01;;;;;;;7.70;2.67;;;;;;;;;;5040339;28;20039;-86
2022/05/13 07:29:26;;;;;;;5.03;2.50;;;;;;;;;;5070552;28;20047;-85
2022/05/13 07:31:51;;;;;;;7.50;2.42;;;;;;;;;;5068694;28;20023;-86
2022/05/13 07:34:17;;;;;;;9.57;2.70;;;;;;;;;;5036405;28;20056;-87
2022/05/13 07:36:42;;;;;;;6.13;2.75;;;;;;;;;;5072161;28;20024;-87
2022/05/13 07:41:52;;;;;;;5.07;1.95;;;;;;;;;;5056113;28;20052;-87
2022/05/13 07:44:17;;;;;;;6.85;2.25;;;;;;;;;;5051780;28;20395;-87
2022/05/13 07:46:43;;;;;;;8.82;2.20;;;;;;;;;;5072763;28;20020;-87
2022/05/13 07:49:09;;;;;;;7.63;2.10;;;;;;;;;;5073744;28;20537;-87
2022/05/13 07:51:35;;;;;;;9.88;2.42;;;;;;;;;;5066100;28;20032;-85
2022/05/13 07:54:00;;;;;;;4.43;2.30;;;;;;;;;;5039405;28;20115;-85
2022/05/13 07:56:26;;;;;;;4.93;2.38;;;;;;;;;;5067303;28;20055;-84
2022/05/13 07:58:51;;;;;;;8.57;2.90;;;;;;;;;;5090867;28;20212;-84
2022/05/13 08:01:17;;;;;;;8.00;2.25;;;;;;;;;;5090368;28;20123;-83
2022/05/13 08:03:43;;;;;;;3.97;2.00;;;;;;;;;;5086826;28;20063;-84
2022/05/13 08:06:09;;;;;;;4.95;2.15;;;;;;;;;;5072571;28;20021;-83
2022/05/13 08:08:42;;;;;;;6.57;2.25;;;;;;;;;;5075415;28;20478;-86
2022/05/13 08:11:13;;;;;;;6.22;2.13;;;;;;;;;;5055764;28;20017;-85
2022/05/13 08:13:39;;;;;;;8.90;2.38;;;;;;;;;;5068044;28;20021;-87
2022/05/13 08:16:09;;;;;;;4.82;1.90;;;;;;;;;;5067216;28;20103;-86
2022/05/13 08:18:35;;;;;;;4.10;2.33;;;;;;;;;;5049701;28;20086;-86
2022/05/13 08:21:01;;;;;;;8.55;2.22;;;;;;;;;;5074276;28;20070;-87
2022/05/13 08:23:27;;;;;;;8.05;2.42;;;;;;;;;;5066936;28;20025;-87
2022/05/13 08:25:52;;;;;;;7.13;2.50;;;;;;;;;;5061332;28;20043;-86
2022/05/13 08:28:20;;;;;;;6.88;2.33;;;;;;;;;;5073841;28;20048;-86
2022/05/13 08:30:46;;;;;;;7.78;2.30;;;;;;;;;;5074762;28;20128;-86
2022/05/13 08:33:12;;;;;;;7.43;2.25;;;;;;;;;;5063174;28;20404;-87
2022/05/13 08:35:40;;;;;;;8.25;1.73;;;;;;;;;;5037780;28;20055;-87
2022/05/13 08:38:06;;;;;;;7.63;2.38;;;;;;;;;;5074811;28;20048;-87
2022/05/13 08:40:47;;;;;;;4.68;1.65;;;;;;;;;;5076459;28;20028;-88
2022/05/13 08:43:16;;;;;;;7.63;2.70;;;;;;;;;;5037051;28;20368;-86
2022/05/13 08:45:50;;;;;;;9.80;2.75;;;;;;;;;;5056463;28;20013;-87
2022/05/13 08:48:18;;;;;;;3.63;2.15;;;;;;;;;;5073737;28;20478;-86
2022/05/13 08:51:17;;;;;;;5.65;2.25;;;;;;;;;;5075867;28;20031;-87
2022/05/13 08:53:53;;;;;;;7.68;2.30;;;;;;;;;;5052745;28;20020;-85
2022/05/13 08:56:25;;;;;;;6.40;2.55;;;;;;;;;;5065758;28;20028;-86
2022/05/13 08:59:05;;;;;;;9.75;2.53;;;;;;;;;;5064464;28;20051;-87
2022/05/13 09:01:39;;;;;;;6.97;2.45;;;;;;;;;;5066850;28;20422;-87
2022/05/13 09:04:11;;;;;;;6.13;2.08;;;;;;;;;;5061175;28;20051;-86
2022/05/13 09:06:51;;;;;;;8.82;2.50;;;;;;;;;;5070036;28;20016;-86
2022/05/13 09:09:17;;;;;;;6.90;2.20;;;;;;;;;;5077573;28;20078;-86
2022/05/13 09:11:48;;;;;;;10.93;2.42;;;;;;;;;;5070830;28;20034;-85
2022/05/13 09:14:44;;;;;;;8.52;2.10;;;;;;;;;;5039932;28;20048;-86
2022/05/13 09:17:42;;;;;;;5.50;1.90;;;;;;;;;;5034918;28;20032;-86
2022/05/13 09:20:13;;;;;;;5.88;2.45;;;;;;;;;;5048904;28;20501;-86
2022/05/13 09:22:52;;;;;;;4.30;2.08;;;;;;;;;;5056484;28;20020;-85
2022/05/13 09:25:36;;;;;;;9.25;2.38;;;;;;;;;;5061072;28;20021;-86
2022/05/13 09:28:11;;;;;;;5.93;2.13;;;;;;;;;;5071848;28;20147;-88
2022/05/13 09:30:40;;;;;;;9.48;1.80;;;;;;;;;;5046792;28;20092;-87
2022/05/13 09:33:36;;;;;;;7.40;1.80;;;;;;;;;;5040475;28;20132;-88
2022/05/13 09:36:29;;;;;;;6.68;2.17;;;;;;;;;;5021033;28;20513;-86
2022/05/13 09:38:57;;;;;;;4.68;1.70;;;;;;;;;;5063997;22;20088;-83
2022/05/13 09:41:25;;;;;;;4.45;1.85;;;;;;;;;;5066096;28;20035;-83
2022/05/13 09:43:53;;;;;;;5.28;1.83;;;;;;;;;;5050552;28;20044;-83
2022/05/13 09:46:34;;;;;;;8.25;2.10;;;;;;;;;;5037780;28;20421;-81
2022/05/13 09:49:09;;;;;;;8.48;2.20;;;;;;;;;;5066614;28;20051;-81
2022/05/13 09:51:49;;;;;;;4.10;2.00;;;;;;;;;;5062984;28;20029;-81
2022/05/13 09:54:33;;;;;;;7.18;1.73;;;;;;;;;;5064197;28;20027;-83
2022/05/13 09:57:12;;;;;;;5.03;1.85;;;;;;;;;;5052824;28;20031;-82
2022/05/13 09:59:51;;;;;;;8.10;2.40;;;;;;;;;;5066790;28;20523;-82
2022/05/13 10:02:29;;;;;;;6.07;2.20;;;;;;;;;;5063748;28;20028;-83
2022/05/13 10:05:13;;;;;;;4.45;1.92;;;;;;;;;;5062518;28;20044;-84
2022/05/13 10:08:01;;;;;;;7.00;1.88;;;;;;;;;;5050741;28;20094;-79
2022/05/13 10:16:38;;;;;;;5.45;2.30;;;;;;;;;;5064587;28;20032;-82
2022/05/13 10:19:09;;;;;;;4.53;2.20;;;;;;;;;;5080914;28;20020;-85
2022/05/13 10:21:49;;;;;;;7.07;2.73;;;;;;;;;;5067292;28;20029;-84
2022/05/13 10:24:28;;;;;;;5.97;2.30;;;;;;;;;;5053974;28;20087;-83
2022/05/13 10:26:56;;;;;;;6.65;2.25;;;;;;;;;;5071892;28;20020;-84
2022/05/13 10:29:29;;;;;;;6.07;2.20;;;;;;;;;;5068231;28;20067;-82
2022/05/13 10:31:56;;;;;;;4.00;2.00;;;;;;;;;;5046203;28;20116;-82
2022/05/13 10:34:33;;;;;;;7.07;2.25;;;;;;;;;;5048716;28;20103;-83
2022/05/13 10:37:04;;;;;;;8.73;2.22;;;;;;;;;;5064880;28;20291;-83
2022/05/13 10:39:42;;;;;;;6.40;2.20;;;;;;;;;;5053703;28;20033;-83
2022/05/13 10:42:15;;;;;;;5.07;2.28;;;;;;;;;;5064406;28;20086;-83
2022/05/13 10:44:48;;;;;;;8.13;2.20;;;;;;;;;;5064818;28;20028;-84
2022/05/13 10:47:22;;;;;;;5.88;2.15;;;;;;;;;;5066539;28;20087;-83
2022/05/13 10:49:47;;;;;;;6.65;2.30;;;;;;;;;;5043309;28;20379;-82
2022/05/13 10:52:35;;;;;;;9.15;2.50;;;;;;;;;;5072501;28;20516;-82
2022/05/13 10:55:09;;;;;;;4.90;2.67;;;;;;;;;;5047476;28;20083;-83
2022/05/13 10:57:45;;;;;;;7.93;2.35;;;;;;;;;;5071763;28;20021;-84
2022/05/13 11:00:19;;;;;;;4.55;2.38;;;;;;;;;;5068648;28;20515;-79
2022/05/13 11:03:18;;;;;;;5.82;2.35;;;;;;;;;;5067567;28;20036;-79
2022/05/13 11:06:13;;;;;;;5.45;2.55;;;;;;;;;;5053315;28;20016;-82
2022/05/13 11:09:08;;;;;;;3.75;2.00;;;;;;;;;;5054810;28;20047;-80
2022/05/13 11:11:42;;;;;;;5.95;2.25;;;;;;;;;;5043466;28;20544;-82
2022/05/13 11:14:44;;;;;;;4.35;2.20;;;;;;;;;;5056901;28;20091;-83
2022/05/13 11:17:37;;;;;;;6.28;2.47;;;;;;;;;;5050668;28;20029;-84
2022/05/13 11:20:24;;;;;;;5.43;2.22;;;;;;;;;;5051304;28;20021;-83
2022/05/13 11:23:14;;;;;;;4.85;3.00;;;;;;;;;;5065629;28;20525;-83
2022/05/13 11:25:56;;;;;;;4.95;2.10;;;;;;;;;;5067648;28;20040;-83
2022/05/13 11:28:47;;;;;;;4.25;1.92;;;;;;;;;;5068160;28;20021;-81
2022/05/13 11:31:41;;;;;;;7.25;2.30;;;;;;;;;;5055648;28;20028;-79
2022/05/13 11:34:34;;;;;;;4.43;2.00;;;;;;;;;;5047302;28;20478;-82
2022/05/13 11:37:04;;;;;;;3.92;2.05;;;;;;;;;;5066439;28;20515;-82
2022/05/13 11:39:48;;;;;;;4.75;2.28;;;;;;;;;;5076329;28;20398;-83
2022/05/13 11:45:55;;;;;;;3.78;1.90;;;;;;;;;;5067692;28;20401;-83
2022/05/13 11:48:40;;;;;;;5.80;2.00;;;;;;;;;;5073795;28;20020;-82
2022/05/13 11:51:18;;;;;;;4.85;2.03;;;;;;;;;;5054153;28;20025;-82
2022/05/13 11:53:54;;;;;;;6.57;2.03;;;;;;;;;;5069121;28;20028;-83
2022/05/13 11:56:26;;;;;;;5.07;2.28;;;;;;;;;;5071337;28;20021;-83
2022/05/13 11:59:02;;;;;;;5.28;1.90;;;;;;;;;;5077419;28;20020;-85
2022/05/13 12:01:46;;;;;;;4.57;2.25;;;;;;;;;;5063094;28;20020;-82
2022/05/13 12:04:11;;;;;;;5.07;2.30;;;;;;;;;;5052677;28;20052;-81
2022/05/13 12:07:24;;;;;;;4.18;2.00;;;;;;;;;;5050494;28;20032;-82
2022/05/13 12:09:53;;;;;;;4.97;2.30;;;;;;;;;;4996505;28;20028;-83
2022/05/13 12:12:33;;;;;;;4.45;2.10;;;;;;;;;;5054876;28;20448;-84
2022/05/13 12:15:11;;;;;;;6.47;2.13;;;;;;;;;;5055148;28;20032;-83
2022/05/13 12:18:05;;;;;;;7.18;2.38;;;;;;;;;;5059536;28;20021;-90
2022/05/13 12:20:44;;;;;;;5.72;2.17;;;;;;;;;;5062206;28;20088;-83
2022/05/13 12:23:15;;;;;;;7.72;2.30;;;;;;;;;;5073910;28;20027;-84
2022/05/13 12:25:51;;;;;;;5.07;1.83;;;;;;;;;;5070764;28;20025;-84
2022/05/13 12:28:16;;;;;;;8.43;2.10;;;;;;;;;;5073822;28;20025;-85
2022/05/13 12:30:42;;;;;;;5.18;2.10;;;;;;;;;;5086818;28;20070;-81
2022/05/13 12:33:20;;;;;;;4.82;1.80;;;;;;;;;;5079676;28;20032;-84
2022/05/13 12:39:10;;;;;;;7.10;1.93;;;;;;;;;;5076165;28;20040;-85
2022/05/13 12:41:41;;;;;;;7.03;1.90;;;;;;;;;;5062880;28;20094;-84
2022/05/13 12:44:07;;;;;;;6.53;1.52;;;;;;;;;;5065594;28;20119;-85
2022/05/13 12:47:04;;;;;;;8.32;1.73;;;;;;;;;;5059316;28;20513;-85
2022/05/13 12:49:54;;;;;;;8.70;2.28;;;;;;;;;;5060131;28;20059;-84
2022/05/13 12:52:40;;;;;;;9.25;2.28;;;;;;;;;;5073548;28;20095;-83
2022/05/13 12:55:08;;;;;;;8.70;2.35;;;;;;;;;;5074657;28;20039;-84
2022/05/13 12:57:39;;;;;;;4.00;1.67;;;;;;;;;;5056718;28;20021;-84
2022/05/13 13:00:14;;;;;;;7.88;2.00;;;;;;;;;;5057825;28;20044;-83
2022/05/13 13:02:41;;;;;;;5.97;1.80;;;;;;;;;;5056063;28;20124;-84
2022/05/13 13:05:14;;;;;;;6.30;1.83;;;;;;;;;;5065548;28;20020;-84
2022/05/13 13:07:40;;;;;;;4.18;1.70;;;;;;;;;;5057253;28;20079;-84
2022/05/13 13:10:06;;;;;;;3.28;1.67;;;;;;;;;;5060397;28;20071;-83
2022/05/13 13:12:42;;;;;;;3.97;1.85;;;;;;;;;;5077697;28;20044;-84
2022/05/13 13:15:16;;;;;;;3.13;1.70;;;;;;;;;;5046313;28;20028;-83
2022/05/13 13:18:01;;;;;;;3.78;1.70;;;;;;;;;;5072901;28;20036;-84
2022/05/13 13:20:29;;;;;;;2.60;1.40;;;;;;;;;;5080394;28;20024;-83
2022/05/13 13:23:05;;;;;;;3.05;1.50;;;;;;;;;;5073545;28;20453;-80
2022/05/13 13:25:36;;;;;;;4.00;1.55;;;;;;;;;;5050162;28;20116;-83
2022/05/13 13:28:08;;;;;;;4.35;2.15;;;;;;;;;;5053604;28;20024;-82
2022/05/13 13:30:39;;;;;;;4.47;1.92;;;;;;;;;;5080440;28;20378;-80
2022/05/13 13:33:07;;;;;;;3.88;1.48;;;;;;;;;;5077684;28;20161;-82
2022/05/13 13:35:39;;;;;;;6.18;1.95;;;;;;;;;;5067295;28;20047;-82
2022/05/13 13:38:08;;;;;;;6.50;2.08;;;;;;;;;;5062202;28;20028;-83
2022/05/13 13:40:37;;;;;;;6.45;1.52;;;;;;;;;;5076671;28;20474;-83
2022/05/13 13:43:20;;;;;;;3.70;1.40;;;;;;;;;;5075152;28;20032;-84
2022/05/13 13:45:52;;;;;;;3.63;1.75;;;;;;;;;;5058934;28;20036;-81
2022/05/13 13:48:35;;;;;;;3.03;1.30;;;;;;;;;;5059954;28;20039;-83
2022/05/13 13:51:01;;;;;;;5.00;2.13;;;;;;;;;;5070789;28;20397;-81
2022/05/13 13:53:33;;;;;;;3.38;1.23;;;;;;;;;;5080398;28;20052;-83
2022/05/13 13:56:01;;;;;;;;;;;;;;;;;;5078639;28;20036;-82
2022/05/13 13:58:32;;;;;;;3.45;1.48;;;;;;;;;;5063189;28;20351;-83
2022/05/13 14:01:08;;;;;;;3.25;1.58;;;;;;;;;;5043690;28;20056;-83
2022/05/13 14:03:33;;;;;;;4.47;1.60;;;;;;;;;;5075468;28;20047;-80
2022/05/13 14:06:03;;;;;;;4.22;1.40;;;;;;;;;;5076921;28;20021;-84
2022/05/13 14:08:31;;;;;;;6.00;1.60;;;;;;;;;;5079448;28;20042;-84
2022/05/13 14:10:57;;;;;;;3.17;1.48;;;;;;;;;;5079953;28;20028;-83
2022/05/13 14:13:38;;;;;;;4.57;1.38;;;;;;;;;;5078724;28;20026;-84
2022/05/13 14:16:22;;;;;;;4.75;1.40;;;;;;;;;;5061125;28;20056;-83
2022/05/13 14:18:50;;;;;;;4.10;1.38;;;;;;;;;;5048372;28;20055;-82
2022/05/13 14:21:16;;;;;;;5.65;1.40;;;;;;;;;;5060327;28;20067;-81
2022/05/13 14:23:42;;;;;;;6.38;1.48;;;;;;;;;;5054521;28;20021;-80
2022/05/13 14:29:36;;;;;;;4.15;1.42;;;;;;;;;;5183786;23;20059;-88
2022/05/13 14:32:11;;;;;;;4.60;1.13;;;;;;;;;;5071660;28;20596;-88
2022/05/13 14:34:37;;;;;;;4.65;1.52;;;;;;;;;;5051249;28;20055;-89
2022/05/13 14:37:30;;;;;;;3.22;1.40;;;;;;;;;;5072950;28;20032;-89
2022/05/13 14:39:57;;;;;;;3.53;1.52;;;;;;;;;;5073675;28;20485;-90
2022/05/13 14:42:45;;;;;;;3.83;1.38;;;;;;;;;;5081427;28;20020;-89
2022/05/13 14:46:18;;;;;;;2.88;1.23;;;;;;;;;;5057725;28;20020;-89
2022/05/13 14:48:44;;;;;;;3.85;1.33;;;;;;;;;;4997940;28;20036;-89
2022/05/13 14:51:19;;;;;;;1.95;1.30;;;;;;;;;;5070218;28;20020;-89
2022/05/13 14:54:01;;;;;;;3.78;1.30;;;;;;;;;;5049033;28;20078;-86
2022/05/13 14:56:47;;;;;;;3.63;1.45;;;;;;;;;;5060646;28;20044;-86
2022/05/13 14:59:19;;;;;;;2.65;1.23;;;;;;;;;;5087989;28;20385;-87
2022/05/13 15:01:45;;;;;;;3.78;1.17;;;;;;;;;;5062994;28;20039;-87
2022/05/13 15:04:25;;;;;;;3.15;1.80;;;;;;;;;;5054257;28;20028;-86
2022/05/13 15:06:51;;;;;;;3.25;1.27;;;;;;;;;;5069157;28;20119;-87
2022/05/13 15:09:19;;;;;;;2.83;1.17;;;;;;;;;;5066537;28;20059;-87
2022/05/13 15:11:49;;;;;;;5.57;1.55;;;;;;;;;;5079395;28;20053;-87
2022/05/13 15:14:14;;;;;;;1.83;1.15;;;;;;;;;;5096148;28;20016;-87
2022/05/13 15:16:41;;;;;;;7.05;1.20;;;;;;;;;;5078365;28;20141;-88
2022/05/13 15:19:09;;;;;;;2.47;1.30;;;;;;;;;;5079276;28;20028;-87
2022/05/13 15:21:35;;;;;;;3.50;1.38;;;;;;;;;;5080322;28;20031;-87
2022/05/13 15:24:00;;;;;;;6.53;1.60;;;;;;;;;;5077723;28;20074;-86
2022/05/13 15:26:29;;;;;;;5.13;1.52;;;;;;;;;;5078042;28;20027;-87
2022/05/13 15:28:55;;;;;;;2.58;1.23;;;;;;;;;;5099414;28;20039;-87
2022/05/13 15:31:21;;;;;;;5.95;1.60;;;;;;;;;;5085665;28;20025;-86
2022/05/13 15:33:47;;;;;;;7.20;1.33;;;;;;;;;;5063544;28;20040;-87
2022/05/13 15:36:24;;;;;;;5.78;1.23;;;;;;;;;;5082253;28;20039;-86
2022/05/13 15:38:50;;;;;;;2.05;1.10;;;;;;;;;;5073937;28;20131;-87
2022/05/13 15:41:16;;;;;;;2.75;1.05;;;;;;;;;;5077651;28;20005;-87
2022/05/13 15:43:42;;;;;;;2.50;1.25;;;;;;;;;;5049978;28;20031;-86
2022/05/13 15:46:11;;;;;;;3.25;1.35;;;;;;;;;;5065193;28;20020;-87
2022/05/13 15:48:36;;;;;;;3.08;1.15;;;;;;;;;;5060630;28;20183;-86